Time,TemperatureF,DewpointF,PressureIn,WindDirection,WindDirectionDegrees,WindSpeedMPH,WindSpeedGustMPH,Humidity,HourlyPrecipIn,Conditions,Clouds,dailyrainin,SoftwareType,DateUTC
2013-09-04 00:02:00,55.2,48.4,30.01,SSW,202,0.0,0.0,78,0.00,,,0.00,WUHU21023XXSP,2013-09-04 05:02:00,
2013-09-04 00:08:00,55.0,48.3,30.01,SSW,202,0.0,0.0,78,0.00,,,0.00,WUHU21023XXSP,2013-09-04 05:08:00,
2013-09-04 00:14:00,54.9,48.1,30.01,SSW,202,0.0,0.0,78,0.00,,,0.00,WUHU21023XXSP,2013-09-04 05:14:00,
2013-09-04 00:21:00,54.7,47.9,30.01,SSW,202,0.0,0.0,78,0.00,,,0.00,WUHU21023XXSP,2013-09-04 05:21:00,
2013-09-04 00:23:00,54.7,47.9,30.01,SSW,202,0.0,0.0,78,0.00,,,0.00,WUHU21023XXSP,2013-09-04 05:23:00,
2013-09-04 00:29:00,54.5,47.8,30.01,SSW,202,0.0,0.0,78,0.00,,,0.00,WUHU21023XXSP,2013-09-04 05:29:00,
2013-09-04 00:36:00,54.3,47.6,30.01,SSW,202,0.0,0.0,78,0.00,,,0.00,WUHU21023XXSP,2013-09-04 05:36:00,
2013-09-04 00:42:00,54.1,47.8,30.01,SSW,202,0.0,0.0,79,0.00,,,0.00,WUHU21023XXSP,2013-09-04 05:42:00,
2013-09-04 00:49:00,54.1,47.8,30.02,SSW,202,0.0,0.0,79,0.00,,,0.00,WUHU21023XXSP,2013-09-04 05:49:00,
2013-09-04 00:55:00,54.0,47.6,30.02,SSW,202,0.0,0.0,79,0.00,,,0.00,WUHU21023XXSP,2013-09-04 05:55:00,
2013-09-04 01:02:00,54.0,47.6,30.02,SSW,202,0.0,0.0,79,0.00,,,0.00,WUHU21023XXSP,2013-09-04 06:02:00,
2013-09-04 01:08:00,54.0,47.3,30.02,SSW,202,0.0,0.0,78,0.00,,,0.00,WUHU21023XXSP,2013-09-04 06:08:00,
2013-09-04 01:14:00,53.8,47.1,30.02,SSW,202,0.0,0.0,78,0.00,,,0.00,WUHU21023XXSP,2013-09-04 06:14:00,
2013-09-04 01:21:00,53.8,47.1,30.02,SSW,202,0.0,0.0,78,0.00,,,0.00,WUHU21023XXSP,2013-09-04 06:21:00,
2013-09-04 01:27:00,53.8,47.1,30.02,SSW,202,0.0,0.0,78,0.00,,,0.00,WUHU21023XXSP,2013-09-04 06:27:00,
2013-09-04 01:34:00,53.8,47.1,30.02,SSW,202,0.0,0.0,78,0.00,,,0.00,WUHU21023XXSP,2013-09-04 06:34:00,
2013-09-04 01:40:00,53.8,47.1,30.02,SSW,202,0.0,0.0,78,0.00,,,0.00,WUHU21023XXSP,2013-09-04 06:40:00,
2013-09-04 01:47:00,53.8,47.1,30.02,SSW,202,0.0,0.0,78,0.00,,,0.00,WUHU21023XXSP,2013-09-04 06:47:00,
2013-09-04 01:53:00,53.4,46.8,30.02,SSW,202,0.0,0.0,78,0.00,,,0.00,WUHU21023XXSP,2013-09-04 06:53:00,
2013-09-04 01:59:00,53.4,47.1,30.02,SSW,202,0.0,0.0,79,0.00,,,0.00,WUHU21023XXSP,2013-09-04 06:59:00,
2013-09-04 02:06:00,53.2,46.9,30.02,SSW,202,0.0,0.0,79,0.00,,,0.00,WUHU21023XXSP,2013-09-04 07:06:00,
2013-09-04 02:12:00,53.2,46.9,30.02,SSW,202,0.0,0.0,79,0.00,,,0.00,WUHU21023XXSP,2013-09-04 07:12:00,
2013-09-04 02:19:00,53.1,46.8,30.02,SSW,202,0.0,0.0,79,0.00,,,0.00,WUHU21023XXSP,2013-09-04 07:19:00,
2013-09-04 02:25:00,52.9,46.6,30.02,SSW,202,0.0,0.0,79,0.00,,,0.00,WUHU21023XXSP,2013-09-04 07:25:00,
2013-09-04 02:32:00,52.9,46.6,30.02,SSW,202,0.0,0.0,79,0.00,,,0.00,WUHU21023XXSP,2013-09-04 07:32:00,
2013-09-04 02:38:00,52.9,46.6,30.03,SSW,202,0.0,0.0,79,0.00,,,0.00,WUHU21023XXSP,2013-09-04 07:38:00,
2013-09-04 02:44:00,53.1,46.8,30.03,SSW,202,0.0,0.0,79,0.00,,,0.00,WUHU21023XXSP,2013-09-04 07:44:00,
2013-09-04 02:51:00,52.9,46.6,30.03,SSW,202,0.0,0.0,79,0.00,,,0.00,WUHU21023XXSP,2013-09-04 07:51:00,
2013-09-04 02:57:00,52.9,46.6,30.03,SSW,202,0.0,0.0,79,0.00,,,0.00,WUHU21023XXSP,2013-09-04 07:57:00,
2013-09-04 03:04:00,52.7,46.4,30.03,SSW,202,0.0,0.0,79,0.00,,,0.00,WUHU21023XXSP,2013-09-04 08:04:00,
2013-09-04 03:10:00,52.7,46.4,30.03,SSW,202,0.0,0.0,79,0.00,,,0.00,WUHU21023XXSP,2013-09-04 08:10:00,
2013-09-04 03:16:00,52.5,46.2,30.04,SSW,202,0.0,0.0,79,0.00,,,0.00,WUHU21023XXSP,2013-09-04 08:16:00,
2013-09-04 03:23:00,52.5,46.2,30.04,SSW,202,0.0,0.0,79,0.00,,,0.00,WUHU21023XXSP,2013-09-04 08:23:00,
2013-09-04 03:29:00,52.3,46.0,30.04,SSW,202,0.0,0.0,79,0.00,,,0.00,WUHU21023XXSP,2013-09-04 08:29:00,
2013-09-04 03:36:00,52.3,46.0,30.04,SSW,202,0.0,0.0,79,0.00,,,0.00,WUHU21023XXSP,2013-09-04 08:36:00,
2013-09-04 03:42:00,52.3,46.0,30.04,SSW,202,0.0,0.0,79,0.00,,,0.00,WUHU21023XXSP,2013-09-04 08:42:00,
2013-09-04 03:49:00,52.3,46.0,30.04,SSW,202,0.0,0.0,79,0.00,,,0.00,WUHU21023XXSP,2013-09-04 08:49:00,
2013-09-04 03:55:00,52.2,45.9,30.04,SSW,202,0.0,0.0,79,0.00,,,0.00,WUHU21023XXSP,2013-09-04 08:55:00,
2013-09-04 04:01:00,52.2,45.9,30.05,SSW,202,0.0,0.0,79,0.00,,,0.00,WUHU21023XXSP,2013-09-04 09:01:00,
2013-09-04 04:08:00,52.0,45.7,30.05,SSW,202,0.0,0.0,79,0.00,,,0.00,WUHU21023XXSP,2013-09-04 09:08:00,
2013-09-04 04:14:00,52.0,45.7,30.05,SSW,202,0.0,0.0,79,0.00,,,0.00,WUHU21023XXSP,2013-09-04 09:14:00,
2013-09-04 04:21:00,52.0,45.7,30.05,SSW,202,0.0,0.0,79,0.00,,,0.00,WUHU21023XXSP,2013-09-04 09:21:00,
2013-09-04 04:27:00,52.0,45.7,30.05,SSW,202,0.0,0.0,79,0.00,,,0.00,WUHU21023XXSP,2013-09-04 09:27:00,
2013-09-04 04:34:00,52.2,45.9,30.05,SSW,202,0.0,0.0,79,0.00,,,0.00,WUHU21023XXSP,2013-09-04 09:34:00,
2013-09-04 04:40:00,52.2,45.9,30.05,SSW,202,0.0,0.0,79,0.00,,,0.00,WUHU21023XXSP,2013-09-04 09:40:00,
2013-09-04 04:46:00,52.2,45.9,30.05,SSW,202,0.0,0.0,79,0.00,,,0.00,WUHU21023XXSP,2013-09-04 09:46:00,
2013-09-04 04:53:00,52.0,45.7,30.05,SSW,202,0.0,0.0,79,0.00,,,0.00,WUHU21023XXSP,2013-09-04 09:53:00,
2013-09-04 04:59:00,52.0,45.7,30.05,SSW,202,0.0,0.0,79,0.00,,,0.00,WUHU21023XXSP,2013-09-04 09:59:00,
2013-09-04 05:06:00,51.8,45.5,30.05,SSW,202,0.0,0.0,79,0.00,,,0.00,WUHU21023XXSP,2013-09-04 10:06:00,
2013-09-04 05:12:00,51.8,45.5,30.05,SSW,202,0.0,0.0,79,0.00,,,0.00,WUHU21023XXSP,2013-09-04 10:12:00,
2013-09-04 05:19:00,51.8,45.5,30.05,SSW,202,0.0,0.0,79,0.00,,,0.00,WUHU21023XXSP,2013-09-04 10:19:00,
2013-09-04 05:25:00,51.8,45.5,30.05,SSW,202,0.0,0.0,79,0.00,,,0.00,WUHU21023XXSP,2013-09-04 10:25:00,
2013-09-04 05:31:00,51.8,45.5,30.05,SSW,202,0.0,0.0,79,0.00,,,0.00,WUHU21023XXSP,2013-09-04 10:31:00,
2013-09-04 05:38:00,51.8,45.5,30.05,SSW,202,0.0,0.0,79,0.00,,,0.00,WUHU21023XXSP,2013-09-04 10:38:00,
2013-09-04 05:44:00,51.6,45.3,30.06,SSW,202,0.0,0.0,79,0.00,,,0.00,WUHU21023XXSP,2013-09-04 10:44:00,
2013-09-04 05:51:00,51.6,45.3,30.06,SSW,202,0.0,0.0,79,0.00,,,0.00,WUHU21023XXSP,2013-09-04 10:51:00,
2013-09-04 05:57:00,51.6,45.3,30.06,SSW,202,0.0,0.0,79,0.00,,,0.00,WUHU21023XXSP,2013-09-04 10:57:00,
2013-09-04 06:04:00,51.6,45.3,30.06,SSW,202,0.0,0.0,79,0.00,,,0.00,WUHU21023XXSP,2013-09-04 11:04:00,
2013-09-04 06:10:00,51.4,45.2,30.07,SSW,202,0.0,0.0,79,0.00,,,0.00,WUHU21023XXSP,2013-09-04 11:10:00,
2013-09-04 06:16:00,51.4,45.2,30.06,SSW,202,0.0,0.0,79,0.00,,,0.00,WUHU21023XXSP,2013-09-04 11:16:00,
2013-09-04 06:23:00,51.3,45.0,30.07,SSW,202,0.0,0.0,79,0.00,,,0.00,WUHU21023XXSP,2013-09-04 11:23:00,
2013-09-04 06:29:00,51.1,44.8,30.07,SSW,202,0.0,0.0,79,0.00,,,0.00,WUHU21023XXSP,2013-09-04 11:29:00,
2013-09-04 06:36:00,51.1,44.8,30.07,SSW,202,0.0,0.0,79,0.00,,,0.00,WUHU21023XXSP,2013-09-04 11:36:00,
2013-09-04 06:42:00,51.1,44.8,30.08,SSW,202,0.0,0.0,79,0.00,,,0.00,WUHU21023XXSP,2013-09-04 11:42:00,
2013-09-04 06:48:00,51.1,44.8,30.08,SSW,202,0.0,0.0,79,0.00,,,0.00,WUHU21023XXSP,2013-09-04 11:48:00,
2013-09-04 06:55:00,51.3,45.0,30.08,SSW,202,0.0,0.0,79,0.00,,,0.00,WUHU21023XXSP,2013-09-04 11:55:00,
2013-09-04 07:01:00,51.4,45.2,30.08,SSW,202,0.0,0.0,79,0.00,,,0.00,WUHU21023XXSP,2013-09-04 12:01:00,
2013-09-04 07:08:00,51.6,45.3,30.08,SSW,202,0.0,0.0,79,0.00,,,0.00,WUHU21023XXSP,2013-09-04 12:08:00,
2013-09-04 07:14:00,51.8,45.5,30.08,SSW,202,0.0,0.0,79,0.00,,,0.00,WUHU21023XXSP,2013-09-04 12:14:00,
2013-09-04 07:21:00,52.0,45.7,30.08,SSW,202,0.0,0.0,79,0.00,,,0.00,WUHU21023XXSP,2013-09-04 12:21:00,
2013-09-04 07:27:00,52.2,45.9,30.08,SSW,202,0.0,0.0,79,0.00,,,0.00,WUHU21023XXSP,2013-09-04 12:27:00,
2013-09-04 07:33:00,52.3,46.0,30.09,SSW,202,0.0,0.0,79,0.00,,,0.00,WUHU21023XXSP,2013-09-04 12:33:00,
2013-09-04 07:40:00,52.7,46.4,30.08,SSW,202,0.0,0.0,79,0.00,,,0.00,WUHU21023XXSP,2013-09-04 12:40:00,
2013-09-04 07:46:00,53.2,46.9,30.08,SSW,202,0.0,0.0,79,0.00,,,0.00,WUHU21023XXSP,2013-09-04 12:46:00,
2013-09-04 07:53:00,53.4,47.1,30.09,SSW,202,0.0,0.0,79,0.00,,,0.00,WUHU21023XXSP,2013-09-04 12:53:00,
2013-09-04 07:59:00,54.1,47.8,30.09,SSE,157,0.0,0.0,79,0.00,,,0.00,WUHU21023XXSP,2013-09-04 12:59:00,
2013-09-04 08:06:00,54.7,48.3,30.09,SSE,157,0.0,0.0,79,0.00,,,0.00,WUHU21023XXSP,2013-09-04 13:06:00,
2013-09-04 08:12:00,55.2,48.8,30.08,SSE,157,0.0,0.0,79,0.00,,,0.00,WUHU21023XXSP,2013-09-04 13:12:00,
2013-09-04 08:18:00,55.9,49.1,30.09,SSW,202,0.0,0.0,78,0.00,,,0.00,WUHU21023XXSP,2013-09-04 13:18:00,
2013-09-04 08:25:00,56.5,49.6,30.09,SSW,202,0.0,0.0,78,0.00,,,0.00,WUHU21023XXSP,2013-09-04 13:25:00,
2013-09-04 08:31:00,57.2,50.4,30.09,SW,225,0.0,0.0,78,0.00,,,0.00,WUHU21023XXSP,2013-09-04 13:31:00,
2013-09-04 08:38:00,57.9,51.4,30.08,SW,225,0.0,0.0,79,0.00,,,0.00,WUHU21023XXSP,2013-09-04 13:38:00,
2013-09-04 08:44:00,58.6,52.0,30.08,SW,225,0.0,0.0,79,0.00,,,0.00,WUHU21023XXSP,2013-09-04 13:44:00,
2013-09-04 08:51:00,59.2,52.3,30.08,West,270,0.0,0.0,78,0.00,,,0.00,WUHU21023XXSP,2013-09-04 13:51:00,
2013-09-04 08:58:00,60.1,53.2,30.08,West,270,3.0,3.0,78,0.00,,,0.00,WUHU21023XXSP,2013-09-04 13:58:00,
2013-09-04 09:04:00,61.0,54.1,30.08,West,270,3.0,3.0,78,0.00,,,0.00,WUHU21023XXSP,2013-09-04 14:04:00,
2013-09-04 09:10:00,61.9,54.9,30.08,West,270,2.0,3.0,78,0.00,,,0.00,WUHU21023XXSP,2013-09-04 14:10:00,
2013-09-04 09:17:00,62.8,55.2,30.08,WNW,292,0.0,3.0,78,0.00,,,0.00,WUHU21023XXSP,2013-09-04 14:17:00,
2013-09-04 09:23:00,63.7,56.3,30.08,West,270,0.0,4.0,77,0.00,,,0.00,WUHU21023XXSP,2013-09-04 14:23:00,
2013-09-04 09:30:00,64.6,56.8,30.08,West,270,0.0,4.0,76,0.00,,,0.00,WUHU21023XXSP,2013-09-04 14:30:00,
2013-09-04 09:36:00,65.5,58.1,30.08,WNW,292,0.0,1.0,77,0.00,,,0.00,WUHU21023XXSP,2013-09-04 14:36:00,
2013-09-04 09:42:00,66.4,58.6,30.08,West,270,1.0,3.0,76,0.00,,,0.00,WUHU21023XXSP,2013-09-04 14:42:00,
2013-09-04 09:49:00,66.9,59.1,30.08,WNW,292,2.0,3.0,76,0.00,,,0.00,WUHU21023XXSP,2013-09-04 14:49:00,
2013-09-04 09:55:00,67.6,59.5,30.08,WNW,292,4.0,4.0,75,0.00,,,0.00,WUHU21023XXSP,2013-09-04 14:55:00,
2013-09-04 10:02:00,68.2,59.6,30.08,WNW,292,0.0,4.0,74,0.00,,,0.00,WUHU21023XXSP,2013-09-04 15:02:00,
2013-09-04 10:08:00,68.7,60.1,30.08,West,270,2.0,3.0,74,0.00,,,0.00,WUHU21023XXSP,2013-09-04 15:08:00,
2013-09-04 10:15:00,69.4,60.4,30.08,West,270,0.0,38.0,73,0.00,,,0.00,WUHU21023XXSP,2013-09-04 15:15:00,
2013-09-04 10:22:00,70.0,60.9,30.08,NW,315,1.0,38.0,73,0.00,,,0.00,WUHU21023XXSP,2013-09-04 15:22:00,
2013-09-04 10:29:00,70.7,61.2,30.07,West,270,1.0,1.0,72,0.00,,,0.00,WUHU21023XXSP,2013-09-04 15:29:00,
2013-09-04 10:34:00,71.2,61.7,30.08,WNW,292,0.0,1.0,72,0.00,,,0.00,WUHU21023XXSP,2013-09-04 15:34:00,
2013-09-04 10:41:00,71.4,61.5,30.08,WNW,292,1.0,1.0,71,0.00,,,0.00,WUHU21023XXSP,2013-09-04 15:41:00,
2013-09-04 10:47:00,72.0,61.5,30.08,WNW,292,0.0,1.0,70,0.00,,,0.00,WUHU21023XXSP,2013-09-04 15:47:00,
2013-09-04 10:52:00,72.1,61.4,30.07,West,270,1.0,1.0,69,0.00,,,0.00,WUHU21023XXSP,2013-09-04 15:52:00,
2013-09-04 10:59:00,72.5,61.8,30.08,West,270,2.0,2.0,69,0.00,,,0.00,WUHU21023XXSP,2013-09-04 15:59:00,
2013-09-04 11:06:00,72.9,61.7,30.08,WNW,292,0.0,3.0,68,0.00,,,0.00,WUHU21023XXSP,2013-09-04 16:06:00,
2013-09-04 11:12:00,73.0,61.4,30.08,WNW,292,0.0,3.0,67,0.00,,,0.00,WUHU21023XXSP,2013-09-04 16:12:00,
2013-09-04 11:18:00,73.4,61.8,30.08,WNW,292,5.0,5.0,67,0.00,,,0.00,WUHU21023XXSP,2013-09-04 16:18:00,
2013-09-04 11:25:00,73.8,61.7,30.08,West,270,2.0,44.0,66,0.00,,,0.00,WUHU21023XXSP,2013-09-04 16:25:00,
2013-09-04 11:31:00,73.9,61.8,30.08,WNW,292,28.0,51.0,66,0.00,,,0.00,WUHU21023XXSP,2013-09-04 16:31:00,
2013-09-04 11:36:00,73.9,61.4,30.08,WNW,292,0.0,51.0,65,0.00,,,0.00,WUHU21023XXSP,2013-09-04 16:36:00,
2013-09-04 11:41:00,74.1,61.6,30.08,WNW,292,0.0,45.0,65,0.00,,,0.00,WUHU21023XXSP,2013-09-04 16:41:00,
2013-09-04 11:47:00,74.1,61.6,30.08,West,270,43.0,45.0,65,0.00,,,0.00,WUHU21023XXSP,2013-09-04 16:47:00,
2013-09-04 11:52:00,74.3,61.7,30.08,West,270,32.0,45.0,65,0.00,,,0.00,WUHU21023XXSP,2013-09-04 16:52:00,
2013-09-04 11:57:00,74.3,61.7,30.08,SW,225,0.0,47.0,65,0.00,,,0.00,WUHU21023XXSP,2013-09-04 16:57:00,
2013-09-04 12:04:00,74.5,62.3,30.08,SSW,202,30.0,47.0,66,0.00,,,0.00,WUHU21023XXSP,2013-09-04 17:04:00,
2013-09-04 12:10:00,74.8,62.7,30.07,SW,225,5.0,40.0,66,0.00,,,0.00,WUHU21023XXSP,2013-09-04 17:10:00,
2013-09-04 12:15:00,75.0,62.4,30.08,WSW,247,0.0,36.0,65,0.00,,,0.00,WUHU21023XXSP,2013-09-04 17:15:00,
2013-09-04 12:22:00,75.2,62.2,30.08,West,270,33.0,33.0,64,0.00,,,0.00,WUHU21023XXSP,2013-09-04 17:22:00,
2013-09-04 12:29:00,75.4,62.8,30.07,West,270,30.0,33.0,65,0.00,,,0.00,WUHU21023XXSP,2013-09-04 17:29:00,
2013-09-04 12:34:00,75.6,62.9,30.07,WNW,292,0.0,30.0,65,0.00,,,0.00,WUHU21023XXSP,2013-09-04 17:34:00,
2013-09-04 12:41:00,75.6,62.9,30.07,WNW,292,0.0,37.0,65,0.00,,,0.00,WUHU21023XXSP,2013-09-04 17:41:00,
2013-09-04 12:48:00,75.4,62.3,30.07,WNW,292,0.0,37.0,64,0.00,,,0.00,WUHU21023XXSP,2013-09-04 17:48:00,
2013-09-04 12:54:00,75.4,62.8,30.07,West,270,0.0,0.0,65,0.00,,,0.00,WUHU21023XXSP,2013-09-04 17:54:00,
2013-09-04 13:00:00,75.2,63.0,30.06,West,270,0.0,0.0,66,0.00,,,0.00,WUHU21023XXSP,2013-09-04 18:00:00,
2013-09-04 13:06:00,75.2,62.6,30.06,West,270,0.0,0.0,65,0.00,,,0.00,WUHU21023XXSP,2013-09-04 18:06:00,
2013-09-04 13:11:00,75.4,62.8,30.07,West,270,0.0,0.0,65,0.00,,,0.00,WUHU21023XXSP,2013-09-04 18:11:00,
2013-09-04 13:18:00,75.4,62.8,30.07,WNW,292,0.0,0.0,65,0.00,,,0.00,WUHU21023XXSP,2013-09-04 18:18:00,
2013-09-04 13:25:00,75.7,63.1,30.06,WSW,247,0.0,0.0,65,0.00,,,0.00,WUHU21023XXSP,2013-09-04 18:25:00,
2013-09-04 13:32:00,75.9,62.4,30.07,WSW,247,29.0,29.0,63,0.00,,,0.00,WUHU21023XXSP,2013-09-04 18:32:00,
2013-09-04 13:39:00,76.3,62.7,30.07,WSW,247,0.0,29.0,63,0.00,,,0.00,WUHU21023XXSP,2013-09-04 18:39:00,
2013-09-04 13:44:00,76.8,63.2,30.07,SW,225,0.0,41.0,63,0.00,,,0.00,WUHU21023XXSP,2013-09-04 18:44:00,
2013-09-04 13:50:00,76.8,63.7,30.07,West,270,0.0,41.0,64,0.00,,,0.00,WUHU21023XXSP,2013-09-04 18:50:00,
2013-09-04 13:56:00,77.0,63.4,30.06,SW,225,26.0,34.0,63,0.00,,,0.00,WUHU21023XXSP,2013-09-04 18:56:00,
2013-09-04 14:01:00,77.2,63.6,30.06,SW,225,26.0,36.0,63,0.00,,,0.00,WUHU21023XXSP,2013-09-04 19:01:00,
2013-09-04 14:08:00,77.4,63.3,30.06,SSW,202,36.0,36.0,62,0.00,,,0.00,WUHU21023XXSP,2013-09-04 19:08:00,
2013-09-04 14:15:00,77.2,63.1,30.06,SW,225,29.0,36.0,62,0.00,,,0.00,WUHU21023XXSP,2013-09-04 19:15:00,
2013-09-04 14:22:00,77.4,63.3,30.06,SW,225,33.0,33.0,62,0.00,,,0.00,WUHU21023XXSP,2013-09-04 19:22:00,
2013-09-04 14:28:00,77.4,63.8,30.05,SW,225,25.0,33.0,63,0.00,,,0.00,WUHU21023XXSP,2013-09-04 19:28:00,
2013-09-04 14:33:00,77.5,63.9,30.05,SW,225,0.0,31.0,64,0.00,,,0.00,WUHU21023XXSP,2013-09-04 19:33:00,
2013-09-04 14:38:00,78.1,64.5,30.05,West,270,33.0,35.0,63,0.00,,,0.00,WUHU21023XXSP,2013-09-04 19:38:00,
2013-09-04 14:44:00,78.6,64.4,30.05,WNW,292,0.0,35.0,62,0.00,,,0.00,WUHU21023XXSP,2013-09-04 19:44:00,
2013-09-04 14:50:00,79.0,64.5,30.05,West,270,36.0,37.0,61,0.00,,,0.00,WUHU21023XXSP,2013-09-04 19:50:00,
2013-09-04 14:57:00,80.2,65.6,30.05,West,270,0.0,37.0,61,0.00,,,0.00,WUHU21023XXSP,2013-09-04 19:57:00,
2013-09-04 15:03:00,81.1,65.4,30.05,WSW,247,0.0,0.0,59,0.00,,,0.00,WUHU21023XXSP,2013-09-04 20:03:00,
2013-09-04 15:08:00,81.1,64.9,30.05,SSW,202,1.0,1.0,58,0.00,,,0.00,WUHU21023XXSP,2013-09-04 20:08:00,
2013-09-04 15:14:00,81.1,64.4,30.04,SW,225,43.0,43.0,57,0.00,,,0.00,WUHU21023XXSP,2013-09-04 20:14:00,
2013-09-04 15:21:00,81.5,65.2,30.04,West,270,25.0,43.0,58,0.00,,,0.00,WUHU21023XXSP,2013-09-04 20:21:00,
2013-09-04 15:28:00,82.2,65.4,30.03,WNW,292,0.0,27.0,57,0.00,,,0.00,WUHU21023XXSP,2013-09-04 20:28:00,
2013-09-04 15:34:00,82.6,65.2,30.04,WNW,292,0.0,0.0,56,0.00,,,0.00,WUHU21023XXSP,2013-09-04 20:34:00,
2013-09-04 15:40:00,82.2,64.8,30.04,West,270,0.0,0.0,56,0.00,,,0.00,WUHU21023XXSP,2013-09-04 20:40:00,
2013-09-04 15:46:00,82.0,65.2,30.04,West,270,0.0,0.0,57,0.00,,,0.00,WUHU21023XXSP,2013-09-04 20:46:00,
2013-09-04 15:53:00,81.3,65.1,30.05,WNW,292,39.0,39.0,58,0.00,,,0.00,WUHU21023XXSP,2013-09-04 20:53:00,
2013-09-04 15:59:00,80.8,65.1,30.04,WNW,292,42.0,45.0,59,0.00,,,0.00,WUHU21023XXSP,2013-09-04 20:59:00,
2013-09-04 16:05:00,80.4,65.3,30.04,WSW,247,0.0,45.0,60,0.00,,,0.00,WUHU21023XXSP,2013-09-04 21:05:00,
2013-09-04 16:10:00,80.2,65.2,30.04,WSW,247,0.0,41.0,60,0.00,,,0.00,WUHU21023XXSP,2013-09-04 21:10:00,
2013-09-04 16:15:00,79.9,64.8,30.04,WNW,292,0.0,39.0,60,0.00,,,0.00,WUHU21023XXSP,2013-09-04 21:15:00,
2013-09-04 16:21:00,79.7,64.7,30.04,WNW,292,0.0,39.0,60,0.00,,,0.00,WUHU21023XXSP,2013-09-04 21:21:00,
2013-09-04 16:26:00,79.2,64.6,30.04,WNW,292,0.0,38.0,61,0.00,,,0.00,WUHU21023XXSP,2013-09-04 21:26:00,
2013-09-04 16:33:00,78.6,64.1,30.04,WNW,292,0.0,34.0,61,0.00,,,0.00,WUHU21023XXSP,2013-09-04 21:33:00,
2013-09-04 16:39:00,78.4,64.4,30.04,WNW,292,0.0,0.0,62,0.00,,,0.00,WUHU21023XXSP,2013-09-04 21:39:00,
2013-09-04 16:46:00,78.1,64.5,30.04,WNW,292,0.0,0.0,63,0.00,,,0.00,WUHU21023XXSP,2013-09-04 21:46:00,
2013-09-04 16:52:00,77.9,64.7,30.04,WNW,292,0.0,0.0,64,0.00,,,0.00,WUHU21023XXSP,2013-09-04 21:52:00,
2013-09-04 16:58:00,77.7,64.5,30.04,WNW,292,0.0,0.0,64,0.00,,,0.00,WUHU21023XXSP,2013-09-04 21:58:00,
2013-09-04 17:05:00,77.5,64.8,30.04,WNW,292,16.0,18.0,65,0.00,,,0.00,WUHU21023XXSP,2013-09-04 22:05:00,
2013-09-04 17:12:00,77.4,64.7,30.03,WNW,292,34.0,34.0,65,0.00,,,0.00,WUHU21023XXSP,2013-09-04 22:12:00,
2013-09-04 17:17:00,77.2,64.5,30.03,WNW,292,0.0,34.0,65,0.00,,,0.00,WUHU21023XXSP,2013-09-04 22:17:00,
2013-09-04 17:23:00,77.0,64.3,30.03,WNW,292,30.0,30.0,65,0.00,,,0.00,WUHU21023XXSP,2013-09-04 22:23:00,
2013-09-04 17:29:00,76.8,64.1,30.03,WNW,292,0.0,30.0,65,0.00,,,0.00,WUHU21023XXSP,2013-09-04 22:29:00,
2013-09-04 17:35:00,76.8,64.1,30.03,WNW,292,0.0,30.0,65,0.00,,,0.00,WUHU21023XXSP,2013-09-04 22:35:00,
2013-09-04 17:42:00,76.8,64.6,30.03,WNW,292,0.0,0.0,66,0.00,,,0.00,WUHU21023XXSP,2013-09-04 22:42:00,
2013-09-04 17:49:00,76.8,64.6,30.03,WNW,292,0.0,0.0,66,0.00,,,0.00,WUHU21023XXSP,2013-09-04 22:49:00,
2013-09-04 17:55:00,76.6,64.4,30.03,WNW,292,0.0,0.0,66,0.00,,,0.00,WUHU21023XXSP,2013-09-04 22:55:00,
2013-09-04 18:01:00,76.3,64.1,30.03,WNW,292,0.0,0.0,66,0.00,,,0.00,WUHU21023XXSP,2013-09-04 23:01:00,
2013-09-04 18:08:00,75.9,64.1,30.04,WNW,292,0.0,0.0,67,0.00,,,0.00,WUHU21023XXSP,2013-09-04 23:08:00,
2013-09-04 18:14:00,75.7,64.0,30.04,WNW,292,0.0,0.0,67,0.00,,,0.00,WUHU21023XXSP,2013-09-04 23:14:00,
2013-09-04 18:21:00,75.4,63.6,30.04,WNW,292,0.0,0.0,67,0.00,,,0.00,WUHU21023XXSP,2013-09-04 23:21:00,
2013-09-04 18:27:00,74.8,63.6,30.04,WNW,292,0.0,0.0,68,0.00,,,0.00,WUHU21023XXSP,2013-09-04 23:27:00,
2013-09-04 18:34:00,74.3,63.5,30.04,WNW,292,0.0,0.0,69,0.00,,,0.00,WUHU21023XXSP,2013-09-04 23:34:00,
2013-09-04 18:40:00,73.8,63.0,30.04,WNW,292,0.0,0.0,69,0.00,,,0.00,WUHU21023XXSP,2013-09-04 23:40:00,
2013-09-04 18:46:00,73.2,63.0,30.04,WNW,292,0.0,0.0,70,0.00,,,0.00,WUHU21023XXSP,2013-09-04 23:46:00,
2013-09-04 18:53:00,73.0,62.8,30.04,WNW,292,0.0,0.0,70,0.00,,,0.00,WUHU21023XXSP,2013-09-04 23:53:00,
2013-09-04 18:59:00,72.5,62.2,30.03,WNW,292,0.0,0.0,70,0.00,,,0.00,WUHU21023XXSP,2013-09-04 23:59:00,
2013-09-04 19:06:00,72.3,62.4,30.04,WNW,292,0.0,0.0,71,0.00,,,0.00,WUHU21023XXSP,2013-09-05 00:06:00,
2013-09-04 19:12:00,71.8,61.9,30.04,WNW,292,0.0,0.0,71,0.00,,,0.00,WUHU21023XXSP,2013-09-05 00:12:00,
2013-09-04 19:19:00,71.4,61.9,30.03,WNW,292,0.0,0.0,72,0.00,,,0.00,WUHU21023XXSP,2013-09-05 00:19:00,
2013-09-04 19:25:00,71.1,61.6,30.03,WNW,292,0.0,0.0,72,0.00,,,0.00,WUHU21023XXSP,2013-09-05 00:25:00,
2013-09-04 19:31:00,70.5,61.4,30.03,West,270,0.0,0.0,73,0.00,,,0.00,WUHU21023XXSP,2013-09-05 00:31:00,
2013-09-04 19:38:00,70.2,61.4,30.03,West,270,0.0,0.0,74,0.00,,,0.00,WUHU21023XXSP,2013-09-05 00:38:00,
2013-09-04 19:44:00,69.6,60.9,30.04,West,270,0.0,0.0,74,0.00,,,0.00,WUHU21023XXSP,2013-09-05 00:44:00,
2013-09-04 19:51:00,69.4,60.7,30.04,West,270,0.0,0.0,74,0.00,,,0.00,WUHU21023XXSP,2013-09-05 00:51:00,
2013-09-04 19:57:00,68.9,60.2,30.04,West,270,0.0,0.0,74,0.00,,,0.00,WUHU21023XXSP,2013-09-05 00:57:00,
2013-09-04 20:04:00,68.7,60.5,30.05,ESE,112,0.0,0.0,75,0.00,,,0.00,WUHU21023XXSP,2013-09-05 01:04:00,
2013-09-04 20:10:00,68.5,60.3,30.05,ENE,67,0.0,1.0,75,0.00,,,0.00,WUHU21023XXSP,2013-09-05 01:10:00,
2013-09-04 20:16:00,68.4,60.5,30.05,ENE,67,1.0,7.0,76,0.00,,,0.00,WUHU21023XXSP,2013-09-05 01:16:00,
2013-09-04 20:23:00,68.2,60.4,30.05,East,90,1.0,7.0,76,0.00,,,0.00,WUHU21023XXSP,2013-09-05 01:23:00,
2013-09-04 20:29:00,68.2,60.4,30.05,ENE,67,4.0,4.0,76,0.00,,,0.00,WUHU21023XXSP,2013-09-05 01:29:00,
2013-09-04 20:36:00,67.8,60.0,30.06,East,90,0.0,4.0,76,0.00,,,0.00,WUHU21023XXSP,2013-09-05 01:36:00,
2013-09-04 20:42:00,67.6,59.8,30.06,East,90,0.0,3.0,76,0.00,,,0.00,WUHU21023XXSP,2013-09-05 01:42:00,
2013-09-04 20:49:00,67.6,59.8,30.06,ENE,67,5.0,5.0,76,0.00,,,0.00,WUHU21023XXSP,2013-09-05 01:49:00,
2013-09-04 20:55:00,67.3,59.5,30.07,ESE,112,0.0,5.0,76,0.00,,,0.00,WUHU21023XXSP,2013-09-05 01:55:00,
2013-09-04 21:01:00,67.1,59.3,30.07,NE,45,2.0,2.0,76,0.00,,,0.00,WUHU21023XXSP,2013-09-05 02:01:00,
2013-09-04 21:08:00,66.9,59.1,30.07,SE,135,0.0,2.0,76,0.00,,,0.00,WUHU21023XXSP,2013-09-05 02:08:00,
2013-09-04 21:14:00,66.7,58.9,30.07,ENE,67,3.0,3.0,76,0.00,,,0.00,WUHU21023XXSP,2013-09-05 02:14:00,
2013-09-04 21:21:00,66.7,59.3,30.08,ENE,67,0.0,3.0,77,0.00,,,0.00,WUHU21023XXSP,2013-09-05 02:21:00,
2013-09-04 21:27:00,66.4,58.9,30.08,ENE,67,0.0,0.0,77,0.00,,,0.00,WUHU21023XXSP,2013-09-05 02:27:00,
2013-09-04 21:33:00,66.2,58.8,30.08,ENE,67,0.0,0.0,77,0.00,,,0.00,WUHU21023XXSP,2013-09-05 02:33:00,
2013-09-04 21:40:00,66.0,58.6,30.08,ESE,112,0.0,0.0,77,0.00,,,0.00,WUHU21023XXSP,2013-09-05 02:40:00,
2013-09-04 21:46:00,66.0,58.6,30.08,ENE,67,0.0,0.0,77,0.00,,,0.00,WUHU21023XXSP,2013-09-05 02:46:00,
2013-09-04 21:53:00,65.8,58.4,30.09,ENE,67,0.0,0.0,77,0.00,,,0.00,WUHU21023XXSP,2013-09-05 02:53:00,
2013-09-04 21:59:00,65.7,58.2,30.08,ENE,67,0.0,0.0,77,0.00,,,0.00,WUHU21023XXSP,2013-09-05 02:59:00,
2013-09-04 22:06:00,65.5,58.1,30.09,NE,45,0.0,0.0,77,0.00,,,0.00,WUHU21023XXSP,2013-09-05 03:06:00,
2013-09-04 22:12:00,65.3,57.9,30.09,NE,45,0.0,0.0,77,0.00,,,0.00,WUHU21023XXSP,2013-09-05 03:12:00,
2013-09-04 22:18:00,65.3,57.9,30.09,NNE,22,0.0,0.0,77,0.00,,,0.00,WUHU21023XXSP,2013-09-05 03:18:00,
2013-09-04 22:25:00,65.1,57.7,30.09,NE,45,0.0,0.0,77,0.00,,,0.00,WUHU21023XXSP,2013-09-05 03:25:00,
2013-09-04 22:31:00,65.1,57.7,30.09,ESE,112,0.0,0.0,77,0.00,,,0.00,WUHU21023XXSP,2013-09-05 03:31:00,
2013-09-04 22:38:00,65.1,57.7,30.09,East,90,0.0,0.0,77,0.00,,,0.00,WUHU21023XXSP,2013-09-05 03:38:00,
2013-09-04 22:44:00,65.1,57.7,30.09,ENE,67,0.0,0.0,77,0.00,,,0.00,WUHU21023XXSP,2013-09-05 03:44:00,
2013-09-04 22:51:00,65.1,57.7,30.09,ENE,67,0.0,0.0,77,0.00,,,0.00,WUHU21023XXSP,2013-09-05 03:51:00,
2013-09-04 22:57:00,64.9,57.5,30.09,ENE,67,0.0,0.0,77,0.00,,,0.00,WUHU21023XXSP,2013-09-05 03:57:00,
2013-09-04 23:01:00,64.9,57.5,30.09,ENE,67,0.0,0.0,77,0.00,,,0.00,WUHU21023XXSP,2013-09-05 04:01:00,
2013-09-04 23:06:00,64.9,57.5,30.09,ENE,67,0.0,0.0,77,0.00,,,0.00,WUHU21023XXSP,2013-09-05 04:06:00,
2013-09-04 23:12:00,64.9,57.5,30.09,ENE,67,0.0,0.0,77,0.00,,,0.00,WUHU21023XXSP,2013-09-05 04:12:00,
2013-09-04 23:18:00,64.8,57.4,30.09,ENE,67,0.0,0.0,77,0.00,,,0.00,WUHU21023XXSP,2013-09-05 04:18:00,
2013-09-04 23:25:00,64.8,57.4,30.09,ENE,67,0.0,0.0,77,0.00,,,0.00,WUHU21023XXSP,2013-09-05 04:25:00,
2013-09-04 23:31:00,64.6,57.2,30.09,SE,135,0.0,0.0,77,0.00,,,0.00,WUHU21023XXSP,2013-09-05 04:31:00,
2013-09-04 23:38:00,64.6,57.2,30.09,ENE,67,0.0,0.0,77,0.00,,,0.00,WUHU21023XXSP,2013-09-05 04:38:00,
2013-09-04 23:44:00,64.6,57.2,30.09,ENE,67,4.0,4.0,77,0.00,,,0.00,WUHU21023XXSP,2013-09-05 04:44:00,
2013-09-04 23:51:00,64.6,57.2,30.09,ENE,67,0.0,4.0,77,0.00,,,0.00,WUHU21023XXSP,2013-09-05 04:51:00,
2013-09-04 23:57:00,64.6,57.2,30.09,East,90,0.0,0.0,77,0.00,,,0.00,WUHU21023XXSP,2013-09-05 04:57:00,